createdAt,value
2018-04-30T00:01:26.246Z,6.00
2018-04-30T00:03:52.608Z,5.67
2018-04-30T00:06:19.035Z,5.53
2018-04-30T00:08:45.397Z,5.47
2018-04-30T00:11:11.832Z,5.73
2018-04-30T00:13:38.320Z,5.90
2018-04-30T00:16:04.736Z,6.80
2018-04-30T00:18:31.097Z,6.53
2018-04-30T00:20:57.417Z,6.47
2018-04-30T00:23:23.919Z,5.90
2018-04-30T00:25:50.328Z,6.07
2018-04-30T00:28:16.642Z,5.80
2018-04-30T00:30:43.116Z,6.00
2018-04-30T00:33:09.447Z,5.50
2018-04-30T00:35:35.863Z,5.60
2018-04-30T00:38:02.180Z,6.30
2018-04-30T00:40:28.522Z,6.00
2018-04-30T00:42:54.948Z,6.17
2018-04-30T00:45:21.409Z,5.53
2018-04-30T00:47:47.732Z,6.07
2018-04-30T00:50:14.119Z,5.87
2018-04-30T00:52:40.503Z,6.30
2018-04-30T00:55:06.937Z,5.10
2018-04-30T00:57:33.325Z,5.57
2018-04-30T00:59:59.722Z,5.47
2018-04-30T01:02:26.063Z,5.33
2018-04-30T01:04:52.391Z,5.20
2018-04-30T01:07:18.902Z,5.53
2018-04-30T01:09:45.297Z,4.80
2018-04-30T01:12:11.769Z,5.23
2018-04-30T01:14:38.173Z,4.93
2018-04-30T01:17:04.584Z,5.10
2018-04-30T01:19:31.017Z,5.27
2018-04-30T01:21:57.532Z,5.77
2018-04-30T01:24:23.967Z,5.93
2018-04-30T01:26:50.380Z,5.67
2018-04-30T01:29:16.758Z,5.63
2018-04-30T01:31:43.155Z,5.47
2018-04-30T01:34:09.497Z,5.37
2018-04-30T01:36:35.889Z,5.43
2018-04-30T01:39:02.297Z,5.13
2018-04-30T01:41:28.624Z,5.37
2018-04-30T01:43:54.994Z,5.33
2018-04-30T01:46:21.451Z,5.57
2018-04-30T01:48:47.866Z,6.13
2018-04-30T01:51:14.272Z,5.63
2018-04-30T01:53:40.613Z,5.30
2018-04-30T01:56:07.090Z,6.33
2018-04-30T01:58:33.496Z,5.73
2018-04-30T02:00:59.889Z,5.60
2018-04-30T02:03:26.729Z,6.27
2018-04-30T02:05:53.213Z,6.43
2018-04-30T02:08:19.638Z,6.83
2018-04-30T02:10:46.003Z,7.73
2018-04-30T02:13:12.448Z,7.23
2018-04-30T02:15:38.876Z,5.97
2018-04-30T02:18:05.248Z,7.13
2018-04-30T02:20:31.626Z,6.57
2018-04-30T02:22:58.000Z,6.87
2018-04-30T02:25:25.259Z,6.27
2018-04-30T02:27:51.715Z,6.53
2018-04-30T02:30:18.112Z,6.77
2018-04-30T02:32:44.541Z,6.37
2018-04-30T02:35:10.910Z,6.20
2018-04-30T02:37:37.246Z,6.17
2018-04-30T02:40:03.594Z,6.70
2018-04-30T02:42:29.991Z,6.20
2018-04-30T02:44:56.358Z,7.43
2018-04-30T02:47:22.750Z,6.87
2018-04-30T02:49:49.171Z,6.10
2018-04-30T02:52:15.511Z,6.53
2018-04-30T02:54:41.901Z,6.33
2018-04-30T02:57:08.373Z,6.20
2018-04-30T02:59:34.773Z,6.23
2018-04-30T03:02:01.167Z,6.90
2018-04-30T03:04:27.631Z,6.20
2018-04-30T03:06:54.014Z,6.43
2018-04-30T03:09:20.435Z,6.57
2018-04-30T03:11:46.857Z,6.43
2018-04-30T03:14:13.294Z,5.93
2018-04-30T03:16:39.708Z,6.27
2018-04-30T03:19:06.099Z,7.03
2018-04-30T03:21:32.468Z,6.50
2018-04-30T03:23:58.986Z,6.03
2018-04-30T03:26:25.505Z,7.10
2018-04-30T03:28:51.898Z,6.33
2018-04-30T03:31:18.213Z,6.83
2018-04-30T03:33:44.586Z,6.70
2018-04-30T03:36:11.040Z,7.27
2018-04-30T03:38:37.440Z,7.70
2018-04-30T03:41:03.803Z,7.83
2018-04-30T03:43:30.158Z,7.17
2018-04-30T03:45:56.766Z,8.33
2018-04-30T03:48:23.257Z,6.93
2018-04-30T03:50:49.661Z,6.40
2018-04-30T03:53:15.977Z,6.50
2018-04-30T03:55:42.419Z,7.40
2018-04-30T03:58:08.782Z,7.50
2018-04-30T04:00:47.449Z,7.63
2018-04-30T04:03:26.150Z,7.70
2018-04-30T04:05:59.853Z,7.20
2018-04-30T04:08:26.273Z,7.73
2018-04-30T04:10:52.648Z,7.67
2018-04-30T04:13:19.044Z,7.00
2018-04-30T04:15:45.806Z,7.27
2018-04-30T04:18:12.261Z,7.13
2018-04-30T04:20:38.640Z,7.40
2018-04-30T04:23:05.049Z,7.20
2018-04-30T04:25:31.500Z,6.03
2018-04-30T04:27:57.908Z,6.70
2018-04-30T04:30:24.245Z,6.17
2018-04-30T04:32:50.656Z,6.50
2018-04-30T04:35:17.076Z,6.87
2018-04-30T04:37:43.512Z,7.70
2018-04-30T04:40:10.055Z,8.07
2018-04-30T04:42:36.642Z,8.07
2018-04-30T04:45:03.112Z,8.50
2018-04-30T04:47:29.595Z,7.93
2018-04-30T04:49:56.073Z,9.00
2018-04-30T04:52:22.400Z,7.87
2018-04-30T04:54:48.855Z,8.47
2018-04-30T04:57:15.452Z,8.47
2018-04-30T04:59:41.861Z,8.67
2018-04-30T05:02:08.193Z,8.47
2018-04-30T05:04:34.591Z,8.10
2018-04-30T05:07:01.150Z,8.67
2018-04-30T05:09:27.579Z,8.50
2018-04-30T05:11:53.963Z,8.40
2018-04-30T05:14:20.341Z,8.70
2018-04-30T05:16:46.817Z,8.50
2018-04-30T05:19:13.326Z,8.07
2018-04-30T05:21:39.723Z,8.93
2018-04-30T05:24:06.256Z,8.33
2018-04-30T05:26:32.779Z,9.13
2018-04-30T05:28:59.156Z,8.63
2018-04-30T05:31:25.610Z,8.93
2018-04-30T05:33:52.116Z,9.33
2018-04-30T05:36:18.646Z,8.97
2018-04-30T05:38:45.097Z,9.20
2018-04-30T05:41:11.504Z,8.80
2018-04-30T05:43:37.852Z,9.77
2018-04-30T05:46:04.304Z,9.07
2018-04-30T05:48:30.711Z,9.00
2018-04-30T05:50:57.105Z,8.20
2018-04-30T05:53:23.507Z,8.10
2018-04-30T05:55:49.981Z,8.20
2018-04-30T05:58:16.350Z,8.30
2018-04-30T06:00:42.806Z,8.60
2018-04-30T06:03:09.241Z,8.13
2018-04-30T06:05:35.730Z,7.57
2018-04-30T06:08:02.166Z,7.10
2018-04-30T06:10:28.597Z,7.00
2018-04-30T06:12:55.013Z,8.40
2018-04-30T06:15:21.354Z,7.93
2018-04-30T06:17:47.828Z,7.53
2018-04-30T06:20:14.220Z,7.20
2018-04-30T06:22:40.579Z,7.03
2018-04-30T06:25:07.049Z,7.90
2018-04-30T06:27:33.460Z,7.87
2018-04-30T06:29:59.937Z,8.43
2018-04-30T06:32:26.412Z,8.17
2018-04-30T06:34:52.737Z,8.00
2018-04-30T06:37:19.291Z,7.63
2018-04-30T06:39:45.687Z,8.20
2018-04-30T06:42:12.047Z,7.87
2018-04-30T06:44:38.401Z,8.53
2018-04-30T06:47:04.912Z,7.63
2018-04-30T06:49:31.436Z,7.83
2018-04-30T06:51:57.943Z,7.77
2018-04-30T06:54:25.255Z,7.70
2018-04-30T06:56:52.499Z,8.07
2018-04-30T06:59:18.935Z,7.33
2018-04-30T07:01:45.381Z,7.80
2018-04-30T07:04:12.768Z,7.73
2018-04-30T07:06:39.317Z,7.33
2018-04-30T07:09:05.729Z,7.87
2018-04-30T07:11:32.087Z,7.70
2018-04-30T07:13:58.430Z,8.43
2018-04-30T07:16:24.930Z,7.47
2018-04-30T07:18:51.271Z,7.60
2018-04-30T07:21:17.768Z,7.90
2018-04-30T07:23:44.289Z,8.43
2018-04-30T07:26:10.757Z,8.35
2018-04-30T07:28:37.161Z,8.00
2018-04-30T07:31:03.635Z,7.90
2018-04-30T07:33:30.072Z,8.17
2018-04-30T07:35:56.519Z,8.68
2018-04-30T07:38:22.895Z,8.03
2018-04-30T07:40:49.226Z,7.40
2018-04-30T07:43:15.621Z,8.00
2018-04-30T07:45:42.026Z,8.70
2018-04-30T07:48:08.400Z,6.70
2018-04-30T07:50:34.754Z,8.23
2018-04-30T07:53:01.174Z,7.87
2018-04-30T07:55:27.778Z,7.77
2018-04-30T07:57:54.426Z,8.10
2018-04-30T08:00:21.051Z,9.30
2018-04-30T08:02:47.507Z,7.70
2018-04-30T08:05:13.903Z,8.03
2018-04-30T08:07:40.349Z,8.10
2018-04-30T08:10:06.742Z,8.33
2018-04-30T08:12:33.106Z,7.53
2018-04-30T08:14:59.698Z,8.77
2018-04-30T08:17:26.140Z,8.47
2018-04-30T08:19:52.489Z,7.53
2018-04-30T08:22:18.814Z,8.70
2018-04-30T08:24:45.195Z,8.40
2018-04-30T08:27:11.585Z,8.20
2018-04-30T08:29:37.980Z,7.63
2018-04-30T08:32:04.436Z,7.33
2018-04-30T08:34:30.876Z,7.93
2018-04-30T08:36:57.335Z,7.53
2018-04-30T08:39:23.825Z,7.20
2018-04-30T08:41:50.380Z,7.40
2018-04-30T08:44:16.755Z,8.30
2018-04-30T08:46:43.166Z,8.27
2018-04-30T08:49:09.560Z,7.37
2018-04-30T08:51:36.261Z,8.47
2018-04-30T08:54:02.863Z,6.97
2018-04-30T08:56:29.410Z,7.33
2018-04-30T08:58:55.829Z,7.83
2018-04-30T09:01:22.397Z,7.57
2018-04-30T09:03:48.918Z,7.80
2018-04-30T09:06:15.422Z,7.37
2018-04-30T09:08:41.840Z,7.43
2018-04-30T09:11:08.345Z,7.10
2018-04-30T09:13:34.885Z,8.43
2018-04-30T09:16:01.444Z,7.63
2018-04-30T09:18:27.915Z,7.20
2018-04-30T09:20:54.471Z,7.33
2018-04-30T09:23:20.974Z,7.03
2018-04-30T09:25:47.541Z,8.30
2018-04-30T09:28:14.016Z,6.53
2018-04-30T09:30:44.520Z,6.63
2018-04-30T09:33:11.011Z,6.07
2018-04-30T09:35:37.831Z,8.07
2018-04-30T09:38:04.303Z,6.60
2018-04-30T09:40:30.825Z,6.67
2018-04-30T09:42:57.219Z,5.90
2018-04-30T09:45:23.744Z,6.27
2018-04-30T09:47:50.149Z,6.80
2018-04-30T09:50:16.628Z,7.27
2018-04-30T09:52:43.059Z,6.20
2018-04-30T09:55:09.407Z,6.37
2018-04-30T09:57:35.853Z,6.87
2018-04-30T10:00:02.581Z,6.63
2018-04-30T10:02:29.002Z,6.57
2018-04-30T10:04:55.425Z,5.90
2018-04-30T10:07:22.783Z,6.90
2018-04-30T10:09:49.144Z,6.30
2018-04-30T10:12:15.770Z,4.73
2018-04-30T10:14:42.207Z,5.77
2018-04-30T10:17:08.757Z,5.73
2018-04-30T10:19:35.151Z,6.23
2018-04-30T10:22:01.598Z,5.63
2018-04-30T10:24:28.323Z,5.10
2018-04-30T10:26:54.772Z,5.47
2018-04-30T10:29:21.162Z,5.30
2018-04-30T10:31:47.584Z,5.00
2018-04-30T10:34:14.089Z,5.30
2018-04-30T10:36:40.782Z,4.33
2018-04-30T10:39:07.263Z,4.43
2018-04-30T10:41:33.662Z,3.37
2018-04-30T10:44:00.043Z,4.30
2018-04-30T10:46:26.790Z,4.20
2018-04-30T10:48:53.464Z,3.87
2018-04-30T10:51:19.872Z,4.37
2018-04-30T10:53:46.320Z,4.50
2018-04-30T10:56:12.690Z,4.13
2018-04-30T10:58:39.192Z,4.50
2018-04-30T11:01:05.566Z,4.63
2018-04-30T11:03:31.977Z,4.30
2018-04-30T11:05:58.452Z,4.30
2018-04-30T11:08:25.013Z,3.70
2018-04-30T11:10:51.554Z,4.03
2018-04-30T11:13:18.076Z,4.00
2018-04-30T11:15:44.506Z,4.70
2018-04-30T11:18:11.121Z,3.57
2018-04-30T11:20:37.643Z,4.90
2018-04-30T11:23:04.072Z,4.70
2018-04-30T11:25:30.443Z,4.30
2018-04-30T11:27:56.932Z,4.13
2018-04-30T11:30:23.361Z,4.70
2018-04-30T11:32:50.110Z,4.10
2018-04-30T11:35:17.420Z,4.00
2018-04-30T11:37:43.914Z,4.03
2018-04-30T11:40:10.339Z,4.03
2018-04-30T11:42:38.368Z,4.23
2018-04-30T11:45:04.821Z,4.37
2018-04-30T11:47:31.287Z,3.90
2018-04-30T11:49:57.956Z,4.23
2018-04-30T11:52:24.441Z,3.80
2018-04-30T11:54:50.793Z,3.90
2018-04-30T11:57:17.302Z,4.20
2018-04-30T11:59:43.754Z,4.73
2018-04-30T12:02:10.143Z,5.03
2018-04-30T12:04:36.737Z,4.80
2018-04-30T12:11:52.265Z,4.72
2018-04-30T12:14:18.682Z,4.40
2018-04-30T12:16:45.234Z,4.47
2018-04-30T12:19:11.715Z,4.20
2018-04-30T12:21:38.082Z,4.50
2018-04-30T12:24:04.489Z,4.50
2018-04-30T12:26:30.975Z,4.53
2018-04-30T12:28:57.731Z,4.77
2018-04-30T12:31:24.308Z,5.00
2018-04-30T12:33:50.818Z,5.23
2018-04-30T12:36:17.689Z,14.17
2018-04-30T12:38:44.107Z,4.03
2018-04-30T12:41:10.540Z,4.60
2018-04-30T12:43:37.635Z,4.50
2018-04-30T12:46:04.151Z,3.70
2018-04-30T12:48:30.943Z,4.57
2018-04-30T12:50:57.647Z,5.47
2018-04-30T12:53:24.274Z,4.83
2018-04-30T12:55:50.786Z,4.13
2018-04-30T12:58:17.481Z,4.27
2018-04-30T13:00:43.979Z,5.13
2018-04-30T13:03:10.576Z,4.23
2018-04-30T13:05:37.309Z,4.50
2018-04-30T13:08:03.739Z,5.13
2018-04-30T13:10:30.198Z,4.80
2018-04-30T13:12:56.728Z,5.10
2018-04-30T13:15:23.336Z,5.00
2018-04-30T13:17:50.183Z,4.20
2018-04-30T13:20:17.624Z,4.23
2018-04-30T13:22:44.297Z,4.73
2018-04-30T13:55:08.105Z,4.37
2018-04-30T13:57:34.524Z,5.43
2018-04-30T14:00:01.187Z,5.40
2018-04-30T14:02:27.615Z,5.50
2018-04-30T14:04:54.556Z,5.13
2018-04-30T14:07:21.172Z,5.63
2018-04-30T14:09:47.765Z,5.93
2018-04-30T14:12:14.166Z,6.30
2018-04-30T14:14:40.646Z,5.47
2018-04-30T14:17:07.051Z,5.27
2018-04-30T14:19:33.614Z,5.37
2018-04-30T14:22:00.126Z,5.17
2018-04-30T14:24:26.746Z,5.13
2018-04-30T14:26:53.177Z,4.53
2018-04-30T14:29:19.623Z,4.87
2018-04-30T14:31:46.154Z,5.17
2018-04-30T14:34:12.493Z,5.27
2018-04-30T14:36:38.889Z,4.50
2018-04-30T14:39:05.382Z,4.77
2018-04-30T14:41:33.686Z,4.97
2018-04-30T14:44:00.103Z,5.47
2018-04-30T14:46:26.546Z,5.20
2018-04-30T14:48:53.034Z,4.40
2018-04-30T14:51:19.467Z,4.93
2018-04-30T14:53:45.937Z,4.60
2018-04-30T14:56:12.387Z,4.40
2018-04-30T14:58:38.931Z,7.10
2018-04-30T15:01:05.495Z,5.70
2018-04-30T15:03:32.061Z,4.63
2018-04-30T15:05:58.498Z,5.97
2018-04-30T15:08:25.063Z,5.23
2018-04-30T15:10:51.631Z,4.97
2018-04-30T15:13:18.025Z,4.90
2018-04-30T15:15:44.476Z,4.87
2018-04-30T15:18:11.030Z,5.00
2018-04-30T15:20:37.481Z,5.13
2018-04-30T15:23:04.455Z,4.93
2018-04-30T15:25:30.940Z,4.77
2018-04-30T15:27:57.424Z,4.00
2018-04-30T15:30:24.088Z,4.23
2018-04-30T15:32:50.517Z,4.97
2018-04-30T15:35:16.934Z,4.17
2018-04-30T15:37:43.466Z,4.20
2018-04-30T15:40:09.893Z,4.27
2018-04-30T15:42:36.347Z,4.20
2018-04-30T15:45:02.879Z,4.20
2018-04-30T15:47:29.289Z,4.53
2018-04-30T15:49:55.672Z,4.03
2018-04-30T15:52:22.092Z,4.33
2018-04-30T15:54:48.498Z,3.73
2018-04-30T15:57:14.977Z,4.20
2018-04-30T15:59:41.479Z,3.97
2018-04-30T16:02:07.957Z,4.40
2018-04-30T16:04:34.373Z,4.17
2018-04-30T16:07:00.817Z,4.07
2018-04-30T16:09:27.354Z,4.30
2018-04-30T16:11:53.978Z,4.33
2018-04-30T16:14:21.686Z,4.83
2018-04-30T16:16:47.995Z,4.23
2018-04-30T16:19:14.423Z,4.90
2018-04-30T16:21:40.855Z,4.07
2018-04-30T16:24:07.942Z,4.20
2018-04-30T16:26:34.355Z,4.13
2018-04-30T16:29:00.906Z,4.00
2018-04-30T16:31:27.286Z,4.23
2018-04-30T16:33:53.746Z,4.43
2018-04-30T16:36:20.521Z,4.30
2018-04-30T16:38:47.013Z,4.13
2018-04-30T16:41:13.435Z,4.50
2018-04-30T16:43:39.902Z,5.10
2018-04-30T16:46:06.273Z,3.60
2018-04-30T16:48:32.777Z,4.43
2018-04-30T16:50:59.280Z,4.90
2018-04-30T16:53:25.656Z,3.83
2018-04-30T16:55:52.078Z,3.97
2018-04-30T16:58:18.562Z,4.13
2018-04-30T17:00:44.951Z,5.00
2018-04-30T17:03:11.428Z,4.03
2018-04-30T17:05:37.869Z,4.03
2018-04-30T17:08:05.192Z,4.50
2018-04-30T17:10:31.864Z,4.40
2018-04-30T17:12:58.326Z,4.27
2018-04-30T17:15:24.714Z,5.10
2018-04-30T17:17:51.597Z,3.80
2018-04-30T17:20:18.138Z,4.27
2018-04-30T17:22:44.575Z,4.63
2018-04-30T17:25:11.111Z,4.60
2018-04-30T17:27:37.651Z,5.23
2018-04-30T17:30:04.148Z,4.80
2018-04-30T17:32:30.758Z,4.80
2018-04-30T17:34:57.509Z,4.87
2018-04-30T17:37:24.015Z,5.70
2018-04-30T17:39:50.521Z,4.67
2018-04-30T17:42:17.073Z,4.43
2018-04-30T17:44:43.703Z,5.63
2018-04-30T17:47:10.482Z,4.63
2018-04-30T17:49:38.044Z,5.13
2018-04-30T17:52:05.513Z,5.27
2018-04-30T17:54:32.723Z,5.03
2018-04-30T17:56:59.016Z,4.47
2018-04-30T17:59:26.131Z,4.87
2018-04-30T18:01:52.637Z,4.53
2018-04-30T18:04:19.412Z,5.20
2018-04-30T18:06:46.542Z,4.67
2018-04-30T18:09:13.275Z,4.77
2018-04-30T18:11:39.776Z,5.40
2018-04-30T18:14:06.403Z,4.50
2018-04-30T18:16:33.022Z,4.90
2018-04-30T18:18:59.809Z,5.47
2018-04-30T18:21:26.294Z,5.10
2018-04-30T18:23:52.744Z,4.60
2018-04-30T18:26:19.194Z,5.07
2018-04-30T18:28:45.597Z,4.93
2018-04-30T18:31:12.043Z,4.53
2018-04-30T18:33:38.748Z,4.87
2018-04-30T18:36:05.379Z,5.03
2018-04-30T18:38:31.998Z,5.27
2018-04-30T18:40:58.530Z,4.83
2018-04-30T18:43:26.067Z,5.30
2018-04-30T18:45:52.530Z,5.07
2018-04-30T18:48:19.115Z,5.13
2018-04-30T18:50:46.231Z,5.07
2018-04-30T18:53:12.973Z,4.77
2018-04-30T18:55:39.408Z,5.00
2018-04-30T18:58:06.099Z,4.67
2018-04-30T19:00:32.686Z,5.30
2018-04-30T19:02:59.078Z,4.40
2018-04-30T19:05:25.468Z,4.90
2018-04-30T19:07:51.953Z,4.83
2018-04-30T19:10:18.453Z,5.10
2018-04-30T19:12:44.978Z,5.33
2018-04-30T19:15:11.382Z,5.00
2018-04-30T19:17:38.452Z,4.57
2018-04-30T19:20:05.191Z,4.83
2018-04-30T19:22:31.685Z,5.27
2018-04-30T19:24:58.137Z,4.90
2018-04-30T19:27:24.548Z,5.93
2018-04-30T19:29:51.202Z,5.27
2018-04-30T19:32:17.635Z,5.23
2018-04-30T19:34:44.081Z,4.80
2018-04-30T19:37:10.520Z,5.30
2018-04-30T19:39:36.988Z,5.17
2018-04-30T19:42:03.387Z,5.93
2018-04-30T19:44:29.746Z,5.53
2018-04-30T19:46:56.184Z,5.10
2018-04-30T19:49:22.730Z,6.03
2018-04-30T19:51:49.364Z,5.23
2018-04-30T19:54:15.859Z,5.93
2018-04-30T19:56:42.254Z,5.43
2018-04-30T19:59:08.750Z,5.43
2018-04-30T20:01:35.328Z,5.60
2018-04-30T20:04:01.827Z,5.80
2018-04-30T20:06:28.225Z,5.93
2018-04-30T20:08:54.883Z,5.67
2018-04-30T20:11:21.270Z,6.00
2018-04-30T20:13:47.696Z,6.43
2018-04-30T20:16:14.268Z,5.80
2018-04-30T20:18:40.838Z,7.53
2018-04-30T20:21:07.511Z,5.77
2018-04-30T20:23:35.829Z,6.67
2018-04-30T20:26:02.422Z,6.00
2018-04-30T20:28:29.012Z,6.60
2018-04-30T20:30:59.189Z,5.90
2018-04-30T20:33:25.573Z,5.80
2018-04-30T20:35:51.935Z,6.80
2018-04-30T20:38:18.633Z,6.27
2018-04-30T20:40:44.981Z,6.73
2018-04-30T20:43:11.407Z,6.47
2018-04-30T20:45:39.412Z,6.50
2018-04-30T20:48:06.047Z,5.63
2018-04-30T20:50:32.713Z,6.60
2018-04-30T20:52:59.142Z,6.23
2018-04-30T20:55:25.549Z,7.10
2018-04-30T20:57:51.997Z,6.00
2018-04-30T21:00:18.394Z,6.00
2018-04-30T21:02:45.204Z,6.30
2018-04-30T21:05:11.637Z,6.20
2018-04-30T21:07:38.148Z,5.90
2018-04-30T21:10:04.630Z,7.13
2018-04-30T21:12:31.114Z,6.90
2018-04-30T21:14:57.573Z,6.97
2018-04-30T21:17:23.997Z,6.50
2018-04-30T21:19:50.474Z,6.73
2018-04-30T21:22:17.066Z,6.13
2018-04-30T21:24:43.549Z,6.00
2018-04-30T21:27:10.034Z,6.23
2018-04-30T21:29:36.449Z,6.20
2018-04-30T21:32:02.861Z,6.40
2018-04-30T21:34:34.215Z,6.37
2018-04-30T21:37:00.610Z,5.60
2018-04-30T21:39:27.393Z,7.30
2018-04-30T21:41:53.887Z,6.30
2018-04-30T21:44:20.249Z,6.57
2018-04-30T21:46:46.664Z,6.23
2018-04-30T21:49:13.197Z,7.00
2018-04-30T21:51:39.681Z,6.00
2018-04-30T21:54:06.211Z,6.07
2018-04-30T21:56:32.742Z,6.17
2018-04-30T21:58:59.150Z,6.50
2018-04-30T22:01:25.544Z,6.60
2018-04-30T22:03:51.932Z,6.87
2018-04-30T22:06:18.434Z,6.57
2018-04-30T22:08:45.214Z,6.60
2018-04-30T22:11:11.623Z,5.77
2018-04-30T22:13:37.952Z,7.97
2018-04-30T22:16:04.376Z,7.03
2018-04-30T22:18:30.833Z,6.07
2018-04-30T22:20:57.187Z,5.53
2018-04-30T22:23:23.577Z,5.77
2018-04-30T22:25:50.090Z,6.03
2018-04-30T22:28:16.475Z,6.00
2018-04-30T22:30:42.875Z,6.60
2018-04-30T22:33:09.467Z,6.37
2018-04-30T22:35:36.205Z,6.17
2018-04-30T22:38:02.637Z,7.10
2018-04-30T22:40:29.009Z,6.70
2018-04-30T22:42:55.394Z,5.93
2018-04-30T22:45:21.912Z,5.67
2018-04-30T22:47:48.307Z,6.93
2018-04-30T22:50:14.738Z,5.47
2018-04-30T22:52:41.157Z,5.67
2018-04-30T22:55:07.564Z,6.17
2018-04-30T22:57:34.004Z,6.07
2018-04-30T23:00:00.458Z,6.27
2018-04-30T23:02:26.809Z,6.17
2018-04-30T23:04:53.405Z,6.33
2018-04-30T23:07:19.849Z,6.67
2018-04-30T23:09:46.329Z,5.90
2018-04-30T23:12:12.695Z,6.33
2018-04-30T23:14:39.042Z,6.53
2018-04-30T23:17:05.447Z,6.33
2018-04-30T23:19:32.167Z,5.93
2018-04-30T23:21:58.529Z,6.70
2018-04-30T23:24:25.028Z,6.03
2018-04-30T23:26:51.614Z,6.33
2018-04-30T23:29:18.103Z,6.00
2018-04-30T23:31:44.483Z,5.53
2018-04-30T23:34:10.837Z,6.00
2018-04-30T23:36:37.189Z,5.60
2018-04-30T23:39:03.728Z,5.63
2018-04-30T23:41:30.052Z,6.20
2018-04-30T23:43:56.380Z,6.27
2018-04-30T23:46:22.753Z,6.10
2018-04-30T23:48:49.200Z,6.47
2018-04-30T23:51:15.613Z,6.27
2018-04-30T23:53:42.050Z,5.00
2018-04-30T23:56:08.494Z,5.50
2018-04-30T23:58:34.923Z,5.53
